createdAt,value
2023-02-24T00:10:32.839Z,49.47
2023-02-24T00:13:13.842Z,54.38
2023-02-24T00:18:58.407Z,57.10
2023-02-24T00:31:37.032Z,52.25
2023-02-24T00:34:08.248Z,47.50
2023-02-24T00:39:51.166Z,46.30
2023-02-24T00:42:20.648Z,42.20
2023-02-24T01:33:13.020Z,43.70
2023-02-24T01:35:47.561Z,41.75
2023-02-24T01:41:30.198Z,41.97
2023-02-24T01:44:15.577Z,38.25
2023-02-24T01:46:59.315Z,44.97
2023-02-24T01:59:11.392Z,44.05
2023-02-24T02:01:44.680Z,39.78
2023-02-24T02:04:35.980Z,40.45
2023-02-24T02:16:43.006Z,44.15
2023-02-24T02:22:49.919Z,46.15
2023-02-24T02:25:51.917Z,45.45
2023-02-24T02:28:38.955Z,43.22
2023-02-24T02:31:27.196Z,41.42
2023-02-24T02:34:06.776Z,41.25
2023-02-24T02:37:00.667Z,43.78
2023-02-24T02:40:03.267Z,40.22
2023-02-24T02:42:52.311Z,41.72
2023-02-24T02:45:45.725Z,38.50
2023-02-24T02:48:38.237Z,40.63
2023-02-24T02:51:19.892Z,45.33
2023-02-24T02:54:11.613Z,43.50
2023-02-24T02:56:43.833Z,39.92
2023-02-24T02:59:24.506Z,34.25
2023-02-24T03:01:56.957Z,44.20
2023-02-24T03:04:27.841Z,38.28
2023-02-24T03:07:07.363Z,38.17
2023-02-24T03:09:48.876Z,42.30
2023-02-24T03:12:20.517Z,39.85
2023-02-24T03:14:53.778Z,37.83
2023-02-24T03:17:25.239Z,46.13
2023-02-24T03:22:31.807Z,40.67
2023-02-24T03:25:07.964Z,38.20
2023-02-24T04:11:17.890Z,41.08
2023-02-24T04:14:19.218Z,39.83
2023-02-24T04:20:33.010Z,44.83
2023-02-24T05:22:45.474Z,35.47
2023-02-24T06:12:30.324Z,44.15
2023-02-24T06:15:31.768Z,44.58
2023-02-24T06:20:25.276Z,39.65
2023-02-24T06:25:19.312Z,40.90
2023-02-24T06:34:48.972Z,47.45
2023-02-24T06:49:02.608Z,41.50
2023-02-24T06:58:37.965Z,33.05
2023-02-24T07:04:22.339Z,38.00
2023-02-24T07:07:00.418Z,38.28
2023-02-24T07:31:26.302Z,35.55
2023-02-24T07:34:07.537Z,36.38
2023-02-24T07:37:03.026Z,38.50
2023-02-24T07:40:07.054Z,40.42
2023-02-24T07:42:39.148Z,38.78
2023-02-24T07:45:34.961Z,29.92
2023-02-24T07:48:26.488Z,34.25
2023-02-24T07:51:25.863Z,41.58
2023-02-24T07:54:26.618Z,36.17
2023-02-24T07:57:28.793Z,32.88
2023-02-24T08:00:22.141Z,33.20
2023-02-24T08:02:58.777Z,28.38
2023-02-24T08:05:46.559Z,30.10
2023-02-24T08:08:30.502Z,32.15
2023-02-24T08:11:23.413Z,31.00
2023-02-24T08:14:02.369Z,30.20
2023-02-24T08:16:42.701Z,24.02
2023-02-24T08:19:24.036Z,26.48
2023-02-24T08:21:54.308Z,34.03
2023-02-24T08:24:31.420Z,25.95
2023-02-24T08:27:25.828Z,27.40
2023-02-24T08:30:05.471Z,20.02
2023-02-24T08:32:39.274Z,38.28
2023-02-24T08:35:16.624Z,28.65
2023-02-24T08:37:48.554Z,23.10
2023-02-24T08:40:34.259Z,24.40
2023-02-24T08:43:01.987Z,24.33
2023-02-24T08:45:40.149Z,31.70
2023-02-24T08:48:19.744Z,28.35
2023-02-24T08:50:55.368Z,29.25
2023-02-24T08:53:35.250Z,25.45
2023-02-24T08:56:10.626Z,22.67
2023-02-24T08:58:48.249Z,27.02
2023-02-24T09:01:21.468Z,22.98
2023-02-24T09:03:50.708Z,21.98
2023-02-24T09:06:26.746Z,20.20
2023-02-24T09:09:17.778Z,24.58
2023-02-24T09:11:47.820Z,20.35
2023-02-24T09:14:27.951Z,20.00
2023-02-24T09:17:16.614Z,25.70
2023-02-24T09:19:49.241Z,24.13
2023-02-24T09:22:58.442Z,21.25
2023-02-24T11:20:49.727Z,20.27
2023-02-24T11:23:20.514Z,19.00
2023-02-24T11:26:02.656Z,21.37
2023-02-24T11:41:27.234Z,19.35
2023-02-24T11:44:01.885Z,19.65
2023-02-24T11:59:40.998Z,21.17
2023-02-24T13:34:27.049Z,20.02
2023-02-24T14:13:50.199Z,16.98
2023-02-24T14:35:55.947Z,16.25
2023-02-24T15:04:51.534Z,17.02
2023-02-24T15:07:21.800Z,18.25
2023-02-24T15:09:51.782Z,17.15
2023-02-24T15:12:39.908Z,18.55
2023-02-24T15:15:22.275Z,16.95
2023-02-24T15:18:05.822Z,15.82
2023-02-24T15:21:00.738Z,17.20
2023-02-24T15:23:42.210Z,21.35
2023-02-24T15:29:05.198Z,17.90
2023-02-24T15:31:43.377Z,26.27
2023-02-24T15:34:21.724Z,29.58
2023-02-24T15:36:51.936Z,17.50
2023-02-24T15:39:32.659Z,17.80
2023-02-24T15:42:09.258Z,19.15
2023-02-24T15:44:40.313Z,19.05
2023-02-24T15:47:34.303Z,17.60
2023-02-24T15:50:13.001Z,20.55
2023-02-24T15:52:52.824Z,17.13
2023-02-24T15:55:56.924Z,18.13
2023-02-24T15:58:36.510Z,21.67
2023-02-24T16:04:49.949Z,26.30
2023-02-24T16:07:22.863Z,21.98
2023-02-24T16:09:56.181Z,22.38
2023-02-24T16:12:28.046Z,21.08
2023-02-24T16:15:07.142Z,24.38
2023-02-24T16:18:13.733Z,22.05
2023-02-24T16:20:56.574Z,20.63
2023-02-24T16:23:30.241Z,23.83
2023-02-24T16:26:09.803Z,22.85
2023-02-24T16:28:38.929Z,22.65
2023-02-24T16:31:08.916Z,38.22
2023-02-24T16:33:53.698Z,74.50
2023-02-24T16:36:29.444Z,32.67
2023-02-24T16:38:58.641Z,21.52
2023-02-24T16:41:28.040Z,37.83
2023-02-24T16:44:05.216Z,35.45
2023-02-24T16:46:38.649Z,37.00
2023-02-24T16:49:16.844Z,27.70
2023-02-24T16:55:14.452Z,23.00
2023-02-24T16:58:01.986Z,25.52
2023-02-24T17:00:39.462Z,26.27
2023-02-24T17:03:35.717Z,29.17
2023-02-24T17:06:09.209Z,27.98
2023-02-24T17:08:46.167Z,26.52
2023-02-24T17:11:15.817Z,22.88
2023-02-24T17:13:46.525Z,38.20
2023-02-24T17:19:30.749Z,24.75
2023-02-24T17:22:01.969Z,24.88
2023-02-24T17:24:31.909Z,32.30
2023-02-24T17:33:44.585Z,27.70
2023-02-24T17:39:32.994Z,30.05
2023-02-24T17:42:05.220Z,26.33
2023-02-24T17:48:19.110Z,33.30
2023-02-24T17:50:49.898Z,30.70
2023-02-24T17:53:21.308Z,26.02
2023-02-24T18:35:29.399Z,36.95
2023-02-24T19:51:33.151Z,19.48
2023-02-24T20:00:58.267Z,14.60
2023-02-24T20:07:18.955Z,18.30
2023-02-24T20:12:56.878Z,17.73
2023-02-24T20:19:10.502Z,18.33
2023-02-24T20:28:23.088Z,18.38
2023-02-24T20:39:58.967Z,13.38
2023-02-24T20:42:39.317Z,10.05
2023-02-24T20:49:13.448Z,13.13
2023-02-24T20:51:47.755Z,8.60
2023-02-24T20:54:26.137Z,12.05
2023-02-24T20:57:24.940Z,12.52
2023-02-24T21:06:30.152Z,8.38
2023-02-24T21:58:59.382Z,11.05
2023-02-24T23:09:56.900Z,10.82
2023-02-24T23:22:47.345Z,14.95
2023-02-24T23:44:49.744Z,14.68
2023-02-24T23:47:35.263Z,13.18
2023-02-24T23:50:22.842Z,13.77
2023-02-24T23:52:59.255Z,7.63
